Philip Billard Municipal Airport
KTOP : now visible

Airfield :











YOU CAN JOIN US ON...

 
LOGIN :

Register | Disclaimer

   EN    FR    IT 

 









Legend :    VFR   Marginal VFR   IFR   Intensive IFR   Very Intensive IFR
Visi :
Ceiling :
>= 8 km
>= 3000ft
5 to 8 km
1000 to 3000 ft
1500m to 5 km
500 to 1000 ft
800 to 1500m
200 to 500 ft
< 800m
< 200 ft
Symbols :   Thunderstorms  Fog  Heavy snow  Heavy precipitations  Wind > 20 kt






- Airport Elevation : 881 ft


KTOP - Philip Billard Municipal

CURRENT METAR :
  • 121853Z 21010G19KT 10SM OVC046 10/M01 A3006 RMK AO2 PK WND 21026/1824 SLP179 T01001011

EXPIRED METARs :
  • 121753Z 20011G21KT 10SM OVC035 09/M02 A3008 RMK AO2 PK WND 19027/1709 SLP188 T00941017 10094 20061 58006
  • 121653Z 21014G26KT 10SM OVC055 09/M02 A3010 RMK AO2 PK WND 22026/1648 SLP196 T00891022

TAF KTOP
Valid from the 12 at 18:00 until the 13 at 18:00 UTC


121720Z 1218/1318 18014G30KT P6SM OVC060
FM121900 22012KT P6SM BKN200
FM122300 17004KT P6SM BKN100



MET'MAP, your aeronautical weather chart ! - Copyright ORBIFLY December 2007 - Disclaimer

ORBIFLY MET'MAP TEAM :

Programming & Development : Alexandra Zaïnal
Concept & original design : Baudouin d'Aumeries
Assistance for programming : Marc-Olivier Méhu
Technical & hardware support : Manuel Goepfert

Contact : metmap@orbifly.com




SOURCES & CREDITS :

   NOAA       Earth
Advisory